Time;durP1;ratioP1;P1;durP2;ratioP2;P2;SDS_P1;SDS_P2;PMS_P1;PMS_P2;Temp;Humidity;BMP_temperature;BMP_pressure;BME280_temperature;BME280_humidity;BME280_pressure;Samples;Min_cycle;Max_cycle;Signal;HPM_P1;HPM_P2
2022/04/09 00:02:22;;;;;;;0.10;0.10;;;8.50;99.90;;;;;;5014315;28;20375;-87
2022/04/09 00:04:48;;;;;;;0.10;0.10;;;8.50;99.90;;;;;;5013010;28;20025;-87
2022/04/09 00:07:17;;;;;;;0.20;0.10;;;8.50;99.90;;;;;;5013364;28;20033;-86
2022/04/09 00:09:42;;;;;;;0.25;0.10;;;8.50;99.90;;;;;;5014412;28;20025;-87
2022/04/09 00:12:08;;;;;;;0.22;0.10;;;8.50;99.90;;;;;;5012917;28;20401;-87
2022/04/09 00:14:35;;;;;;;0.20;0.20;;;8.50;99.90;;;;;;5012769;28;20022;-87
2022/04/09 00:17:01;;;;;;;0.10;0.10;;;8.50;99.90;;;;;;5014122;28;20560;-87
2022/04/09 00:19:26;;;;;;;0.20;0.20;;;8.50;99.90;;;;;;5014086;28;20038;-88
2022/04/09 00:21:52;;;;;;;0.10;0.10;;;8.50;99.90;;;;;;5012712;28;20033;-88
2022/04/09 00:24:18;;;;;;;0.38;0.20;;;8.50;99.90;;;;;;5012693;28;20509;-87
2022/04/09 00:26:43;;;;;;;0.20;0.10;;;8.50;99.90;;;;;;5012862;28;20034;-87
2022/04/09 00:29:09;;;;;;;0.10;0.10;;;8.50;99.90;;;;;;5012557;28;20034;-87
2022/04/09 00:31:35;;;;;;;0.70;0.20;;;8.40;99.90;;;;;;5012520;28;20362;-86
2022/04/09 00:34:01;;;;;;;0.10;0.10;;;8.40;99.90;;;;;;5012427;28;20018;-86
2022/04/09 00:36:26;;;;;;;0.40;0.20;;;8.40;99.90;;;;;;5013696;28;20025;-88
2022/04/09 00:38:52;;;;;;;0.20;0.20;;;8.40;99.90;;;;;;5013692;28;20060;-87
2022/04/09 00:41:18;;;;;;;0.10;0.10;;;8.40;99.90;;;;;;5013640;28;20032;-87
2022/04/09 00:43:44;;;;;;;0.20;0.20;;;8.50;99.90;;;;;;5012346;28;20038;-86
2022/04/09 00:46:14;;;;;;;0.13;0.13;;;8.40;99.90;;;;;;5012169;28;20440;-87
2022/04/09 00:48:42;;;;;;;0.13;0.10;;;8.40;99.90;;;;;;5012196;28;20029;-87
2022/04/09 00:51:07;;;;;;;0.25;0.10;;;8.40;99.90;;;;;;5012174;28;20033;-88
2022/04/09 00:53:41;;;;;;;0.20;0.20;;;8.40;99.90;;;;;;5012026;28;20050;-86
2022/04/09 00:56:20;;;;;;;0.10;0.10;;;8.40;99.90;;;;;;5012218;28;20064;-87
2022/04/09 00:58:55;;;;;;;0.20;0.20;;;8.40;99.90;;;;;;5012463;28;20066;-87
2022/04/09 01:01:29;;;;;;;0.10;0.10;;;8.40;99.90;;;;;;5012133;28;20034;-86
2022/04/09 01:03:56;;;;;;;0.20;0.20;;;8.40;99.90;;;;;;5012143;28;20030;-88
2022/04/09 01:06:22;;;;;;;0.20;0.20;;;8.40;99.90;;;;;;5011992;28;20034;-87
2022/04/09 01:08:47;;;;;;;0.10;0.10;;;8.40;99.90;;;;;;5012393;28;20490;-87
2022/04/09 01:11:14;;;;;;;0.45;0.20;;;8.30;99.90;;;;;;5012079;28;20094;-87
2022/04/09 01:13:41;;;;;;;0.20;0.20;;;8.40;99.90;;;;;;5012016;28;20442;-88
2022/04/09 01:16:08;;;;;;;0.50;0.22;;;8.30;99.90;;;;;;5013274;28;20076;-87
2022/04/09 01:18:34;;;;;;;0.17;0.17;;;8.30;99.90;;;;;;5012027;28;20074;-87
2022/04/09 01:21:04;;;;;;;0.43;0.20;;;8.30;99.90;;;;;;5013292;28;20060;-87
2022/04/09 01:23:31;;;;;;;0.30;0.30;;;8.30;99.90;;;;;;5012031;28;20026;-87
2022/04/09 01:25:58;;;;;;;0.20;0.20;;;8.30;99.90;;;;;;5013103;28;20030;-87
2022/04/09 01:28:25;;;;;;;0.52;0.30;;;8.30;99.90;;;;;;5013170;28;20385;-87
2022/04/09 01:30:51;;;;;;;0.60;0.30;;;8.30;99.90;;;;;;5011933;28;20018;-87
2022/04/09 01:33:17;;;;;;;0.40;0.30;;;8.30;99.90;;;;;;5013139;28;20029;-87
2022/04/09 01:35:44;;;;;;;0.20;0.20;;;8.30;99.90;;;;;;5011898;28;20026;-87
2022/04/09 01:38:10;;;;;;;0.30;0.30;;;8.30;99.90;;;;;;5013062;28;20044;-87
2022/04/09 01:40:36;;;;;;;0.88;0.40;;;8.30;99.90;;;;;;5013043;28;20026;-87
2022/04/09 01:43:02;;;;;;;0.30;0.30;;;8.20;99.90;;;;;;5011793;28;20057;-87
2022/04/09 01:45:28;;;;;;;0.30;0.28;;;8.30;99.90;;;;;;5011722;28;20023;-87
2022/04/09 01:47:54;;;;;;;0.30;0.30;;;8.20;99.90;;;;;;5012922;28;20053;-87
2022/04/09 01:50:21;;;;;;;2.35;0.60;;;8.20;99.90;;;;;;5011686;28;20101;-87
2022/04/09 01:52:47;;;;;;;0.40;0.40;;;8.20;99.90;;;;;;5012778;28;20038;-87
2022/04/09 01:55:13;;;;;;;0.73;0.32;;;8.20;99.90;;;;;;5011786;28;20113;-87
2022/04/09 01:57:39;;;;;;;1.80;0.43;;;8.20;99.90;;;;;;5011578;28;20458;-87
2022/04/09 02:00:08;;;;;;;0.40;0.40;;;8.20;99.90;;;;;;5012940;28;20034;-86
2022/04/09 02:02:34;;;;;;;0.50;0.47;;;8.20;99.90;;;;;;5011620;28;20026;-87
2022/04/09 02:05:00;;;;;;;0.32;0.32;;;8.20;99.90;;;;;;5012868;28;20393;-87
2022/04/09 02:07:27;;;;;;;0.75;0.50;;;8.20;99.90;;;;;;5011470;28;20032;-86
2022/04/09 02:09:53;;;;;;;0.73;0.43;;;8.20;99.90;;;;;;5011493;28;20026;-86
2022/04/09 02:12:19;;;;;;;0.40;0.40;;;8.20;99.90;;;;;;5013212;28;20033;-86
2022/04/09 02:14:45;;;;;;;0.60;0.50;;;8.20;99.90;;;;;;5016538;28;20034;-86
2022/04/09 02:17:11;;;;;;;0.47;0.40;;;8.20;99.90;;;;;;5014993;28;20061;-86
2022/04/09 02:19:38;;;;;;;0.60;0.50;;;8.20;99.90;;;;;;5014892;28;20512;-86
2022/04/09 02:22:04;;;;;;;0.70;0.60;;;8.20;99.90;;;;;;5014881;28;20018;-86
2022/04/09 02:24:30;;;;;;;0.95;0.43;;;8.10;99.90;;;;;;5016106;28;20034;-86
2022/04/09 02:26:55;;;;;;;0.50;0.40;;;8.10;99.90;;;;;;5014711;28;20030;-86
2022/04/09 02:29:21;;;;;;;0.80;0.60;;;8.10;99.90;;;;;;5014812;28;20022;-86
2022/04/09 02:31:47;;;;;;;0.63;0.60;;;8.10;99.90;;;;;;5014658;28;20084;-85
2022/04/09 02:34:13;;;;;;;2.15;0.52;;;8.10;99.90;;;;;;5014646;28;20029;-85
2022/04/09 02:36:38;;;;;;;0.50;0.50;;;8.10;99.90;;;;;;5014603;28;20440;-85
2022/04/09 02:39:04;;;;;;;0.73;0.43;;;8.10;99.90;;;;;;5014552;28;20176;-85
2022/04/09 02:41:30;;;;;;;0.60;0.50;;;8.10;99.90;;;;;;5014787;28;20028;-85
2022/04/09 02:43:57;;;;;;;1.17;0.70;;;8.10;99.90;;;;;;5014509;28;20037;-85
2022/04/09 02:46:24;;;;;;;0.68;0.68;;;8.10;99.90;;;;;;5014324;28;20117;-85
2022/04/09 02:48:50;;;;;;;0.60;0.50;;;8.10;99.90;;;;;;5015687;28;20022;-85
2022/04/09 02:51:16;;;;;;;0.93;0.60;;;8.10;99.90;;;;;;5014279;28;20018;-85
2022/04/09 02:53:42;;;;;;;1.35;0.60;;;8.10;99.90;;;;;;5014085;28;20053;-85
2022/04/09 02:56:08;;;;;;;1.13;0.60;;;8.10;99.90;;;;;;5014230;28;20486;-86
2022/04/09 02:58:33;;;;;;;0.80;0.60;;;8.00;99.90;;;;;;5015441;28;20022;-86
2022/04/09 03:00:59;;;;;;;0.88;0.70;;;8.00;99.90;;;;;;5014196;28;20512;-86
2022/04/09 03:03:25;;;;;;;0.90;0.60;;;8.00;99.90;;;;;;5014441;28;20382;-85
2022/04/09 03:05:51;;;;;;;0.80;0.70;;;8.00;99.90;;;;;;5013988;28;20478;-86
2022/04/09 03:08:16;;;;;;;0.98;0.60;;;8.00;99.90;;;;;;5013950;28;20026;-85
2022/04/09 03:10:42;;;;;;;1.00;0.60;;;8.00;99.90;;;;;;5013986;28;20022;-86
2022/04/09 03:13:08;;;;;;;1.08;0.63;;;8.00;99.90;;;;;;5013917;28;20099;-86
2022/04/09 03:15:33;;;;;;;0.90;0.70;;;8.00;99.90;;;;;;5013875;28;20508;-85
2022/04/09 03:17:59;;;;;;;1.45;0.70;;;8.00;99.90;;;;;;5015074;28;20049;-85
2022/04/09 03:20:25;;;;;;;2.17;0.80;;;8.00;99.90;;;;;;5013771;28;20120;-85
2022/04/09 03:22:50;;;;;;;0.70;0.70;;;8.00;99.90;;;;;;5013053;28;20026;-85
2022/04/09 03:25:17;;;;;;;1.70;0.70;;;8.00;99.90;;;;;;5013259;28;20080;-85
2022/04/09 03:27:43;;;;;;;1.05;0.80;;;7.90;99.90;;;;;;5013608;28;20029;-85
2022/04/09 03:30:09;;;;;;;1.13;0.60;;;7.90;99.90;;;;;;5013586;28;20081;-84
2022/04/09 03:32:39;;;;;;;0.93;0.73;;;7.90;99.90;;;;;;5013618;28;20018;-85
2022/04/09 03:35:05;;;;;;;0.82;0.60;;;7.90;99.90;;;;;;5013513;28;20545;-84
2022/04/09 03:37:35;;;;;;;0.90;0.73;;;7.90;99.90;;;;;;5014667;28;20461;-84
2022/04/09 03:40:02;;;;;;;1.00;0.60;;;7.90;99.90;;;;;;5013387;28;20021;-84
2022/04/09 03:42:28;;;;;;;1.23;0.70;;;7.90;99.90;;;;;;5014763;28;20489;-84
2022/04/09 03:44:53;;;;;;;0.98;0.80;;;7.90;99.90;;;;;;5013274;28;20030;-84
2022/04/09 03:47:19;;;;;;;0.70;0.68;;;7.90;99.90;;;;;;5013132;28;20025;-84
2022/04/09 03:49:45;;;;;;;0.70;0.70;;;7.90;99.90;;;;;;5014637;28;20101;-84
2022/04/09 03:52:10;;;;;;;1.50;1.08;;;7.90;99.90;;;;;;5013153;28;20072;-84
2022/04/09 03:54:38;;;;;;;1.00;0.90;;;7.80;99.90;;;;;;5012981;28;20049;-84
2022/04/09 03:57:04;;;;;;;0.85;0.80;;;7.90;99.90;;;;;;5014416;28;20033;-83
2022/04/09 03:59:29;;;;;;;1.20;1.00;;;7.80;99.90;;;;;;5012978;28;20030;-84
2022/04/09 04:01:55;;;;;;;1.05;0.82;;;7.80;99.90;;;;;;5014281;28;20080;-84
2022/04/09 04:04:21;;;;;;;2.15;1.10;;;7.80;99.90;;;;;;5012964;28;20117;-83
2022/04/09 04:06:48;;;;;;;4.57;1.40;;;7.80;99.90;;;;;;5012839;28;20375;-83
2022/04/09 04:09:16;;;;;;;1.88;1.05;;;7.80;99.90;;;;;;5012901;28;20029;-83
2022/04/09 04:11:43;;;;;;;1.70;1.30;;;7.80;99.90;;;;;;5012838;28;20040;-83
2022/04/09 04:14:09;;;;;;;3.88;1.40;;;7.80;99.90;;;;;;5012852;28;20029;-83
2022/04/09 04:16:35;;;;;;;1.80;1.35;;;7.80;99.90;;;;;;5012690;28;20034;-82
2022/04/09 04:19:01;;;;;;;2.03;1.52;;;7.80;99.90;;;;;;5012690;28;20029;-83
2022/04/09 04:21:27;;;;;;;4.38;2.20;;;7.80;99.90;;;;;;5014144;28;20101;-82
2022/04/09 04:23:53;;;;;;;3.42;2.00;;;7.80;99.90;;;;;;5012601;28;20025;-82
2022/04/09 04:26:19;;;;;;;3.25;1.98;;;7.80;99.90;;;;;;5012504;28;20030;-82
2022/04/09 04:28:48;;;;;;;3.78;2.00;;;7.70;99.90;;;;;;5013760;28;20462;-82
2022/04/09 04:31:17;;;;;;;2.40;2.20;;;7.70;99.90;;;;;;5012567;28;20101;-82
2022/04/09 04:33:43;;;;;;;5.65;2.90;;;7.70;99.90;;;;;;5013741;28;20033;-82
2022/04/09 04:36:09;;;;;;;3.92;2.38;;;7.70;99.90;;;;;;5012097;28;20041;-82
2022/04/09 04:38:35;;;;;;;2.78;2.38;;;7.70;99.90;;;;;;5012392;28;20057;-81
2022/04/09 04:41:02;;;;;;;4.15;2.80;;;7.70;99.90;;;;;;5012317;28;20112;-81
2022/04/09 04:43:28;;;;;;;7.32;2.75;;;7.70;99.90;;;;;;5012291;28;20037;-81
2022/04/09 04:45:53;;;;;;;5.07;3.15;;;7.70;99.90;;;;;;5013482;28;20062;-81
2022/04/09 04:48:22;;;;;;;5.03;3.42;;;7.70;99.90;;;;;;5013508;28;20018;-82
2022/04/09 04:50:48;;;;;;;3.88;3.20;;;7.70;99.90;;;;;;5013411;28;20559;-81
2022/04/09 04:53:14;;;;;;;4.82;3.05;;;7.70;99.90;;;;;;5013272;28;20046;-81
2022/04/09 04:55:40;;;;;;;4.55;3.00;;;7.70;99.90;;;;;;5012156;28;20076;-81
2022/04/09 04:58:05;;;;;;;5.82;3.10;;;7.60;99.90;;;;;;5013624;28;20096;-80
2022/04/09 05:00:31;;;;;;;4.65;3.45;;;7.60;99.90;;;;;;5012100;28;20026;-80
2022/04/09 05:03:00;;;;;;;4.93;2.88;;;7.60;99.90;;;;;;5012119;28;20029;-81
2022/04/09 05:05:26;;;;;;;4.65;3.30;;;7.60;99.90;;;;;;5013345;28;20645;-81
2022/04/09 05:07:53;;;;;;;5.55;3.10;;;7.60;99.90;;;;;;5011938;28;20116;-80
2022/04/09 05:10:20;;;;;;;6.30;3.28;;;7.60;99.90;;;;;;5012270;28;20033;-80
2022/04/09 05:12:47;;;;;;;3.75;3.03;;;7.60;99.90;;;;;;5011959;28;20018;-80
2022/04/09 05:15:15;;;;;;;4.55;3.42;;;7.60;99.90;;;;;;5011960;28;20026;-80
2022/04/09 05:17:42;;;;;;;4.68;3.20;;;7.60;99.90;;;;;;5013379;28;20077;-80
2022/04/09 05:20:14;;;;;;;3.88;3.00;;;7.60;99.90;;;;;;5013187;28;20033;-80
2022/04/09 05:22:43;;;;;;;4.60;2.80;;;7.60;99.90;;;;;;5012363;28;20036;-80
2022/04/09 05:25:10;;;;;;;5.00;3.45;;;7.60;99.90;;;;;;5013191;28;20029;-80
2022/04/09 05:27:37;;;;;;;7.47;3.20;;;7.60;99.90;;;;;;5011775;28;20026;-80
2022/04/09 05:30:05;;;;;;;6.05;3.10;;;7.60;99.90;;;;;;5013125;28;20030;-80
2022/04/09 05:32:31;;;;;;;5.18;3.10;;;7.60;99.90;;;;;;5011801;28;20572;-80
2022/04/09 05:34:57;;;;;;;5.05;3.05;;;7.60;99.90;;;;;;5011750;28;20053;-81
2022/04/09 05:37:22;;;;;;;4.13;3.40;;;7.60;99.90;;;;;;5011760;28;20048;-80
2022/04/09 05:39:48;;;;;;;3.40;2.80;;;7.60;99.90;;;;;;5011730;28;20030;-80
2022/04/09 05:42:14;;;;;;;4.68;3.03;;;7.60;99.90;;;;;;5012975;28;20029;-80
2022/04/09 05:44:40;;;;;;;6.50;3.03;;;7.60;99.90;;;;;;5011668;28;20060;-80
2022/04/09 05:47:06;;;;;;;5.95;3.42;;;7.60;99.90;;;;;;5013040;28;20061;-80
2022/04/09 05:49:32;;;;;;;4.40;3.50;;;7.70;99.90;;;;;;5016712;28;20026;-80
2022/04/09 05:51:58;;;;;;;7.50;3.67;;;7.70;99.90;;;;;;5016903;28;20221;-80
2022/04/09 05:54:24;;;;;;;5.90;3.60;;;7.70;99.90;;;;;;5016534;28;20086;-80
2022/04/09 05:56:50;;;;;;;5.38;3.42;;;7.70;99.90;;;;;;5016560;28;20390;-80
2022/04/09 05:59:16;;;;;;;7.47;3.00;;;7.70;99.90;;;;;;5015275;28;20108;-80
2022/04/09 06:01:42;;;;;;;6.00;3.20;;;7.60;99.90;;;;;;5015170;28;20529;-80
2022/04/09 06:04:08;;;;;;;6.53;3.03;;;7.60;99.90;;;;;;5015146;28;20022;-80
2022/04/09 06:06:33;;;;;;;5.40;3.40;;;7.60;99.90;;;;;;5015025;28;20038;-80
2022/04/09 06:08:59;;;;;;;5.45;3.30;;;7.60;99.90;;;;;;5016672;28;20463;-79
2022/04/09 06:11:25;;;;;;;6.97;3.85;;;7.70;99.90;;;;;;5015070;28;20104;-79
2022/04/09 06:13:50;;;;;;;4.80;3.38;;;7.70;99.90;;;;;;5015003;28;20395;-79
2022/04/09 06:16:17;;;;;;;5.32;3.45;;;7.70;99.90;;;;;;5014991;28;20088;-79
2022/04/09 06:18:43;;;;;;;6.30;3.47;;;7.70;99.90;;;;;;5014922;28;20092;-80
2022/04/09 06:21:09;;;;;;;4.25;3.42;;;7.70;99.90;;;;;;5014871;28;20032;-80
2022/04/09 06:23:35;;;;;;;5.57;3.50;;;7.70;99.90;;;;;;5014842;28;20029;-81
2022/04/09 06:26:02;;;;;;;4.72;3.30;;;7.70;99.90;;;;;;5015963;28;20061;-79
2022/04/09 06:28:28;;;;;;;4.22;3.17;;;7.70;99.90;;;;;;5014705;28;20483;-80
2022/04/09 06:30:54;;;;;;;4.15;3.10;;;7.70;99.90;;;;;;5014650;28;20385;-80
2022/04/09 06:33:22;;;;;;;4.32;3.13;;;7.70;99.90;;;;;;5014576;28;20022;-80
2022/04/09 06:35:48;;;;;;;4.28;3.15;;;7.70;99.90;;;;;;5015860;28;20018;-79
2022/04/09 06:38:14;;;;;;;5.43;3.50;;;7.80;99.90;;;;;;5014532;28;20040;-79
2022/04/09 06:40:40;;;;;;;6.32;3.13;;;7.70;99.90;;;;;;5014512;28;20026;-80
2022/04/09 06:43:06;;;;;;;5.85;3.38;;;7.80;99.90;;;;;;5014455;28;20028;-80
2022/04/09 06:45:33;;;;;;;4.55;3.03;;;7.80;99.90;;;;;;5014446;28;20018;-79
2022/04/09 06:48:00;;;;;;;4.88;2.97;;;7.80;99.90;;;;;;5014258;28;20030;-79
2022/04/09 06:50:27;;;;;;;5.97;3.17;;;7.80;99.90;;;;;;5015753;28;20076;-79
2022/04/09 06:52:53;;;;;;;4.00;3.35;;;7.80;99.90;;;;;;5015329;28;20409;-79
2022/04/09 06:55:18;;;;;;;7.75;4.72;;;7.80;99.90;;;;;;5014124;28;20018;-80
2022/04/09 06:57:44;;;;;;;8.27;4.22;;;7.70;99.90;;;;;;5015590;28;20022;-80
2022/04/09 07:00:14;;;;;;;6.65;4.65;;;7.60;99.90;;;;;;5014132;28;20022;-79
2022/04/09 07:02:40;;;;;;;7.45;4.50;;;7.60;99.90;;;;;;5014127;28;20189;-80
2022/04/09 07:05:07;;;;;;;11.00;4.40;;;7.60;99.90;;;;;;5015651;28;20029;-79
2022/04/09 07:07:33;;;;;;;10.93;4.97;;;7.70;99.90;;;;;;5014024;28;20038;-79
2022/04/09 07:10:05;;;;;;;6.97;3.95;;;7.80;99.90;;;;;;5013970;28;20087;-79
2022/04/09 07:12:31;;;;;;;9.20;4.72;;;7.90;99.90;;;;;;5015161;28;20046;-79
2022/04/09 07:14:57;;;;;;;7.22;4.05;;;8.00;99.90;;;;;;5013863;28;20478;-79
2022/04/09 07:17:24;;;;;;;8.93;3.67;;;8.00;99.90;;;;;;5013845;28;20098;-79
2022/04/09 07:19:50;;;;;;;7.57;3.97;;;8.10;99.90;;;;;;5015305;28;20018;-79
2022/04/09 07:22:16;;;;;;;6.68;3.78;;;8.20;99.90;;;;;;5013788;28;20036;-79
2022/04/09 07:24:42;;;;;;;4.90;3.60;;;8.20;99.90;;;;;;5015007;28;20026;-80
2022/04/09 07:27:08;;;;;;;7.97;3.40;;;8.20;99.90;;;;;;5013722;28;20037;-80
2022/04/09 07:29:34;;;;;;;5.25;3.72;;;8.20;99.90;;;;;;5013609;28;20076;-79
2022/04/09 07:32:00;;;;;;;5.65;3.15;;;8.30;99.90;;;;;;5014856;28;20017;-80
2022/04/09 07:34:26;;;;;;;7.43;3.35;;;8.30;99.90;;;;;;5014815;28;20478;-79
2022/04/09 07:36:52;;;;;;;8.18;3.05;;;8.30;99.90;;;;;;5014469;28;20037;-80
2022/04/09 07:39:17;;;;;;;6.07;3.15;;;8.40;99.90;;;;;;5013401;28;20124;-79
2022/04/09 07:41:43;;;;;;;11.30;3.63;;;8.40;99.90;;;;;;5013396;28;20021;-79
2022/04/09 07:44:09;;;;;;;8.77;3.75;;;8.20;99.90;;;;;;5014794;28;20412;-80
2022/04/09 07:46:34;;;;;;;6.68;3.40;;;8.20;99.90;;;;;;5013222;28;20359;-80
2022/04/09 07:49:00;;;;;;;7.32;3.13;;;8.20;99.90;;;;;;5014540;28;20382;-80
2022/04/09 07:51:26;;;;;;;7.25;3.33;;;8.30;99.90;;;;;;5014401;28;20105;-80
2022/04/09 07:53:51;;;;;;;8.02;3.45;;;8.40;99.90;;;;;;5014220;28;20041;-81
2022/04/09 07:56:17;;;;;;;7.97;2.90;;;8.40;99.90;;;;;;5014346;28;20083;-80
2022/04/09 07:58:43;;;;;;;7.18;3.10;;;8.40;99.90;;;;;;5014382;28;20366;-81
2022/04/09 08:01:09;;;;;;;7.53;3.40;;;8.50;99.90;;;;;;5014325;28;20029;-81
2022/04/09 08:03:35;;;;;;;8.38;3.25;;;8.50;99.90;;;;;;5012992;28;20022;-81
2022/04/09 08:06:00;;;;;;;5.05;3.20;;;8.50;99.90;;;;;;5013402;28;20025;-81
2022/04/09 08:08:26;;;;;;;5.43;2.60;;;8.50;99.90;;;;;;5012871;28;20029;-81
2022/04/09 08:10:52;;;;;;;4.78;2.92;;;8.60;99.90;;;;;;5012278;28;20385;-81
2022/04/09 08:13:18;;;;;;;7.07;3.13;;;8.60;99.90;;;;;;5012718;28;20037;-81
2022/04/09 08:15:44;;;;;;;6.75;2.90;;;8.60;99.90;;;;;;5014038;28;20022;-81
2022/04/09 08:18:11;;;;;;;10.68;3.08;;;8.60;99.90;;;;;;5012713;28;20401;-81
2022/04/09 08:20:37;;;;;;;9.75;3.15;;;8.60;99.90;;;;;;5012664;28;20030;-82
2022/04/09 08:23:03;;;;;;;7.47;2.65;;;8.60;99.90;;;;;;5012612;28;20128;-82
2022/04/09 08:25:29;;;;;;;5.57;2.90;;;8.50;99.90;;;;;;5013853;28;20080;-82
2022/04/09 08:27:55;;;;;;;4.60;2.78;;;8.50;99.90;;;;;;5012465;28;20477;-82
2022/04/09 08:30:22;;;;;;;7.93;2.72;;;8.40;99.90;;;;;;5013639;28;20389;-81
2022/04/09 08:32:52;;;;;;;7.80;2.58;;;8.40;99.90;;;;;;5012236;28;20108;-82
2022/04/09 08:35:18;;;;;;;6.28;2.78;;;8.40;99.90;;;;;;5012227;28;20099;-81
2022/04/09 08:37:54;;;;;;;5.30;2.40;;;8.40;99.90;;;;;;5013477;28;20033;-82
2022/04/09 08:40:23;;;;;;;10.20;3.50;;;8.30;99.90;;;;;;5012176;28;20029;-82
2022/04/09 08:42:49;;;;;;;10.90;5.13;;;8.30;99.90;;;;;;5012145;28;20086;-82
2022/04/09 08:45:16;;;;;;;8.80;4.68;;;8.30;99.90;;;;;;5012064;28;20442;-82
2022/04/09 08:47:43;;;;;;;10.80;4.90;;;8.30;99.90;;;;;;5013692;28;20029;-82
2022/04/09 08:50:13;;;;;;;10.82;5.40;;;8.30;99.90;;;;;;5012043;28;20018;-82
2022/04/09 08:52:41;;;;;;;8.50;4.75;;;8.20;99.90;;;;;;5011938;28;20040;-83
2022/04/09 08:55:09;;;;;;;8.32;4.60;;;8.20;99.90;;;;;;5012087;28;20032;-82
2022/04/09 08:57:35;;;;;;;7.93;4.32;;;8.20;99.90;;;;;;5012055;28;20107;-83
2022/04/09 09:00:19;;;;;;;6.60;4.43;;;8.20;99.90;;;;;;5011974;28;20489;-82
2022/04/09 09:02:54;;;;;;;10.55;4.07;;;8.20;99.90;;;;;;5012055;28;20144;-83
2022/04/09 09:05:30;;;;;;;8.05;3.90;;;8.10;99.90;;;;;;5011947;28;20180;-82
2022/04/09 09:07:56;;;;;;;8.70;4.00;;;8.10;99.90;;;;;;5011786;28;20040;-83
2022/04/09 09:10:22;;;;;;;7.68;4.05;;;8.10;99.90;;;;;;5011834;28;20018;-83
2022/04/09 09:13:11;;;;;;;8.38;4.03;;;8.10;99.90;;;;;;5013026;28;20036;-83
2022/04/09 09:15:52;;;;;;;8.13;3.78;;;8.10;99.90;;;;;;5013315;28;20021;-83
2022/04/09 09:18:22;;;;;;;7.00;3.50;;;8.10;99.90;;;;;;5013019;28;20018;-83
2022/04/09 09:20:52;;;;;;;6.65;3.72;;;8.10;99.90;;;;;;5011858;28;20037;-83
2022/04/09 09:23:26;;;;;;;5.78;3.55;;;8.10;99.90;;;;;;5015395;28;20026;-83
2022/04/09 09:25:55;;;;;;;6.90;3.05;;;8.10;99.90;;;;;;5017120;28;20022;-83
2022/04/09 09:28:26;;;;;;;6.20;3.40;;;8.10;99.90;;;;;;5015738;28;20116;-83
2022/04/09 09:30:52;;;;;;;6.65;3.20;;;8.10;99.90;;;;;;5016986;28;20567;-83
2022/04/09 09:33:18;;;;;;;10.20;3.65;;;8.00;99.90;;;;;;5017205;28;20401;-83
2022/04/09 09:35:47;;;;;;;8.90;3.80;;;8.10;99.90;;;;;;5016929;28;20049;-83
2022/04/09 09:38:24;;;;;;;8.82;3.65;;;8.10;99.90;;;;;;5015556;28;20037;-83
2022/04/09 09:40:50;;;;;;;9.02;3.67;;;8.10;99.90;;;;;;5015539;28;20034;-83
2022/04/09 09:43:20;;;;;;;8.02;3.22;;;8.00;99.90;;;;;;5016777;28;20087;-83
2022/04/09 09:45:47;;;;;;;6.63;3.28;;;8.00;99.90;;;;;;5015446;28;20040;-83
2022/04/09 09:48:19;;;;;;;5.55;2.97;;;8.00;99.90;;;;;;5015383;28;20485;-83
2022/04/09 09:50:45;;;;;;;8.50;3.40;;;8.00;99.90;;;;;;5016563;28;20018;-84
2022/04/09 09:53:11;;;;;;;6.90;3.00;;;8.10;99.90;;;;;;5016426;28;20034;-83
2022/04/09 09:55:46;;;;;;;7.25;3.17;;;8.20;99.90;;;;;;5016572;28;20022;-84
2022/04/09 09:58:18;;;;;;;4.93;2.72;;;8.30;99.90;;;;;;5015228;28;20481;-84
2022/04/09 10:00:44;;;;;;;7.07;2.92;;;8.40;99.90;;;;;;5015208;28;20026;-84
2022/04/09 10:03:13;;;;;;;5.90;2.78;;;8.40;99.90;;;;;;5015119;28;20040;-84
2022/04/09 10:05:41;;;;;;;7.55;3.17;;;8.60;99.90;;;;;;5015047;28;20026;-84
2022/04/09 10:08:08;;;;;;;7.03;2.83;;;8.60;99.90;;;;;;5016254;28;20485;-84
2022/04/09 10:10:37;;;;;;;7.15;3.10;;;8.60;99.90;;;;;;5016602;28;20028;-84
2022/04/09 10:13:06;;;;;;;6.85;2.75;;;8.70;99.90;;;;;;5014945;28;20025;-84
2022/04/09 10:15:32;;;;;;;8.25;2.88;;;8.70;99.90;;;;;;5014954;28;20029;-85
2022/04/09 10:17:59;;;;;;;8.30;2.92;;;8.70;99.90;;;;;;5014943;28;20049;-84
2022/04/09 10:20:26;;;;;;;5.95;2.60;;;8.70;99.90;;;;;;5014843;28;20026;-84
2022/04/09 10:22:56;;;;;;;6.28;2.42;;;8.80;99.90;;;;;;5016047;28;20026;-84
2022/04/09 10:25:27;;;;;;;6.95;2.70;;;8.80;99.90;;;;;;5016094;28;20026;-84
2022/04/09 10:28:00;;;;;;;4.13;2.40;;;8.80;99.90;;;;;;5015960;28;20033;-84
2022/04/09 10:30:25;;;;;;;5.35;2.45;;;8.80;99.90;;;;;;5014663;28;20192;-85
2022/04/09 10:32:54;;;;;;;7.13;2.70;;;8.90;99.90;;;;;;5014402;28;20029;-84
2022/04/09 10:35:27;;;;;;;7.72;2.50;;;8.90;99.90;;;;;;5014605;28;20033;-85
2022/04/09 10:38:08;;;;;;;5.45;2.50;;;8.90;99.90;;;;;;5014484;28;20025;-85
2022/04/09 10:40:34;;;;;;;8.27;2.58;;;8.90;99.90;;;;;;5015778;28;20520;-85
2022/04/09 10:43:01;;;;;;;7.65;3.17;;;9.00;99.90;;;;;;5015709;28;20037;-86
2022/04/09 10:45:30;;;;;;;7.68;2.78;;;9.10;99.90;;;;;;5015913;28;20489;-85
2022/04/09 10:48:11;;;;;;;6.57;2.58;;;9.10;99.90;;;;;;5015547;28;20487;-85
2022/04/09 10:50:51;;;;;;;8.80;2.92;;;9.20;99.90;;;;;;5015536;28;20105;-85
2022/04/09 10:53:17;;;;;;;7.47;2.70;;;9.30;99.90;;;;;;5015527;28;20515;-85
2022/04/09 10:56:02;;;;;;;5.13;2.40;;;9.30;99.90;;;;;;5015587;28;20026;-85
2022/04/09 10:58:28;;;;;;;7.97;2.38;;;9.30;99.90;;;;;;5013941;28;20045;-85
2022/04/09 11:00:54;;;;;;;4.45;2.30;;;9.30;99.90;;;;;;5015436;28;20029;-85
2022/04/09 11:03:28;;;;;;;6.30;2.10;;;9.40;99.90;;;;;;5014115;28;20088;-85
2022/04/09 11:06:34;;;;;;;8.07;2.90;;;9.40;99.90;;;;;;5013986;28;20053;-86
2022/04/09 11:09:03;;;;;;;8.90;2.67;;;9.40;99.90;;;;;;5012695;28;20030;-85
2022/04/09 11:11:28;;;;;;;8.25;2.40;;;9.50;99.90;;;;;;5013939;28;20019;-85
2022/04/09 11:13:54;;;;;;;5.07;2.35;;;9.50;99.90;;;;;;5015151;28;20076;-85
2022/04/09 11:16:20;;;;;;;9.95;2.45;;;9.40;99.90;;;;;;5013875;28;20025;-85
2022/04/09 11:18:47;;;;;;;8.13;2.58;;;9.50;99.90;;;;;;5013822;28;20424;-85
2022/04/09 11:21:12;;;;;;;6.13;2.60;;;9.50;99.90;;;;;;5013733;28;20113;-85
2022/04/09 11:23:38;;;;;;;8.35;2.22;;;9.50;99.90;;;;;;5013972;28;20022;-85
2022/04/09 11:26:04;;;;;;;7.32;2.70;;;9.50;99.90;;;;;;5013639;28;20061;-87
2022/04/09 11:28:38;;;;;;;11.13;3.10;;;9.60;99.90;;;;;;5013681;28;20030;-85
2022/04/09 11:31:05;;;;;;;7.40;2.47;;;9.50;99.90;;;;;;5013637;28;20390;-87
2022/04/09 11:33:31;;;;;;;6.63;2.35;;;9.50;99.90;;;;;;5013534;28;20026;-86
2022/04/09 11:35:57;;;;;;;6.85;2.22;;;9.50;99.90;;;;;;5013486;28;20022;-87
2022/04/09 11:38:27;;;;;;;9.95;2.97;;;9.50;99.90;;;;;;5014716;28;20101;-87
2022/04/09 11:40:54;;;;;;;8.70;2.53;;;9.50;99.90;;;;;;5014931;28;20030;-88
2022/04/09 11:43:21;;;;;;;4.82;2.28;;;9.60;99.90;;;;;;5014846;28;20018;-87
2022/04/09 11:45:47;;;;;;;11.23;2.63;;;9.70;99.90;;;;;;5012325;28;20080;-87
2022/04/09 11:48:19;;;;;;;7.43;2.60;;;9.70;99.90;;;;;;5014689;28;20493;-87
2022/04/09 11:50:46;;;;;;;6.15;2.60;;;9.70;99.90;;;;;;5014661;28;20025;-88
2022/04/09 11:53:30;;;;;;;7.45;2.30;;;9.70;99.90;;;;;;5013032;28;20042;-89
2022/04/09 11:56:00;;;;;;;5.78;2.35;;;9.70;99.90;;;;;;5013181;28;20030;-87
2022/04/09 11:58:34;;;;;;;4.38;2.05;;;9.80;99.90;;;;;;5013153;28;20091;-88
2022/04/09 12:01:00;;;;;;;;;;;9.80;99.90;;;;;;5015045;28;20465;-88
2022/04/09 12:03:26;;;;;;;7.38;2.45;;;9.90;99.90;;;;;;5012976;28;19916;-87
2022/04/09 12:05:52;;;;;;;6.35;2.10;;;9.90;99.90;;;;;;5013155;28;20029;-88
2022/04/09 12:08:23;;;;;;;6.88;2.55;;;9.90;99.90;;;;;;5013321;28;20030;-87
2022/04/09 12:10:55;;;;;;;7.47;2.20;;;9.80;99.90;;;;;;5012816;28;20025;-87
2022/04/09 12:13:36;;;;;;;5.35;2.00;;;9.80;99.90;;;;;;5014017;28;20100;-87
2022/04/09 12:16:12;;;;;;;7.78;2.13;;;9.70;99.90;;;;;;5014290;28;20025;-87
2022/04/09 12:18:39;;;;;;;6.82;2.25;;;9.70;99.90;;;;;;5014021;28;20473;-87
2022/04/09 12:21:21;;;;;;;7.78;2.40;;;9.70;99.90;;;;;;5015511;28;20018;-87
2022/04/09 12:24:03;;;;;;;6.68;2.42;;;9.70;99.90;;;;;;5013110;28;20072;-87
2022/04/09 12:26:30;;;;;;;4.70;1.98;;;9.60;99.90;;;;;;5012560;28;20112;-87
2022/04/09 12:29:20;;;;;;;7.25;2.08;;;9.60;99.90;;;;;;5012437;28;20029;-88
2022/04/09 12:31:48;;;;;;;7.50;2.35;;;9.50;99.90;;;;;;5012499;28;20511;-87
2022/04/09 12:34:15;;;;;;;6.47;2.50;;;9.50;99.90;;;;;;5014121;28;20100;-87
2022/04/09 12:37:04;;;;;;;7.05;2.08;;;9.50;99.90;;;;;;5013697;28;20032;-87
2022/04/09 12:39:32;;;;;;;7.45;2.40;;;9.40;99.90;;;;;;5012351;28;20034;-87
2022/04/09 12:41:58;;;;;;;7.20;2.40;;;9.50;99.90;;;;;;5012366;28;20082;-88
2022/04/09 12:44:29;;;;;;;5.40;2.20;;;9.50;99.90;;;;;;5012506;28;20037;-87
2022/04/09 12:46:56;;;;;;;7.60;2.22;;;9.70;99.90;;;;;;5013787;28;20029;-88
2022/04/09 12:49:40;;;;;;;8.25;2.20;;;9.90;99.90;;;;;;5012968;28;20420;-85
2022/04/09 12:52:09;;;;;;;4.13;1.77;;;10.00;99.90;;;;;;5012341;28;20026;-87
2022/04/09 12:54:35;;;;;;;7.50;2.03;;;10.10;99.90;;;;;;5012074;28;20052;-88
2022/04/09 12:57:11;;;;;;;6.57;2.00;;;10.30;99.90;;;;;;5013200;28;20109;-88
2022/04/09 12:59:36;;;;;;;7.30;2.13;;;10.50;99.90;;;;;;5012234;28;20036;-89
2022/04/09 13:02:04;;;;;;;10.30;2.55;;;10.70;99.90;;;;;;5012069;28;20030;-88